Time;durP1;ratioP1;P1;durP2;ratioP2;P2;SDS_P1;SDS_P2;PMS_P1;PMS_P2;Temp;Humidity;BMP_temperature;BMP_pressure;BME280_temperature;BME280_humidity;BME280_pressure;Samples;Min_cycle;Max_cycle;Signal;HPM_P1;HPM_P2
2022/09/24 00:01:23;;;;;;;3.80;3.50;;;;;;;13.83;75.85;100292.88;5052007;28;20228;-76
2022/09/24 00:03:51;;;;;;;3.80;3.27;;;;;;;13.82;76.05;100287.72;5052288;28;20205;-77
2022/09/24 00:06:19;;;;;;;3.97;3.40;;;;;;;13.83;76.12;100286.78;5057211;28;20251;-77
2022/09/24 00:08:46;;;;;;;3.47;3.27;;;;;;;13.85;75.96;100277.09;5062577;28;20194;-77
2022/09/24 00:11:13;;;;;;;3.20;3.00;;;;;;;13.85;76.32;100277.09;5058736;28;20201;-76
2022/09/24 00:13:40;;;;;;;2.70;2.50;;;;;;;13.89;76.04;100286.56;5052046;28;20213;-76
2022/09/24 00:16:10;;;;;;;3.27;3.07;;;;;;;13.81;76.74;100265.00;5051843;28;20658;-76
2022/09/24 00:18:37;;;;;;;3.00;2.80;;;;;;;13.77;73.67;100287.00;5051914;28;20670;-78
2022/09/24 00:21:12;;;;;;;3.50;3.30;;;;;;;13.82;75.03;100322.66;5054918;28;20251;-77
2022/09/24 00:23:38;;;;;;;3.57;2.67;;;;;;;13.85;76.05;100306.81;5055211;28;20204;-77
2022/09/24 00:28:49;;;;;;;3.30;3.10;;;;;;;13.87;76.75;100272.66;5055510;28;20259;-77
2022/09/24 00:31:17;;;;;;;3.27;3.07;;;;;;;13.86;77.62;100252.59;5055657;28;20209;-77
2022/09/24 00:33:44;;;;;;;2.90;2.70;;;;;;;13.82;77.53;100232.63;5055180;28;20212;-77
2022/09/24 00:36:10;;;;;;;3.03;2.83;;;;;;;13.78;77.97;100231.03;5055664;28;20324;-78
2022/09/24 00:38:36;;;;;;;5.90;2.60;;;;;;;13.74;78.08;100226.78;5055355;28;20259;-77
2022/09/24 00:41:03;;;;;;;4.57;2.70;;;;;;;13.78;77.55;100231.88;5054930;28;20228;-77
2022/09/24 00:43:33;;;;;;;2.77;2.57;;;;;;;13.67;76.60;100241.88;5055198;28;20668;-77
2022/09/24 00:46:09;;;;;;;3.30;2.63;;;;;;;13.61;76.99;100270.94;5055131;28;20316;-78
2022/09/24 00:48:39;;;;;;;4.47;2.77;;;;;;;13.63;77.60;100246.38;5056159;28;20205;-78
2022/09/24 00:51:06;;;;;;;2.60;2.40;;;;;;;13.67;77.62;100237.47;5055609;28;20211;-77
2022/09/24 00:53:33;;;;;;;2.90;2.40;;;;;;;13.69;78.37;100225.16;5055594;28;20316;-78
2022/09/24 00:56:02;;;;;;;2.20;2.10;;;;;;;13.63;77.40;100227.16;5055305;28;20229;-78
2022/09/24 00:58:31;;;;;;;3.17;2.20;;;;;;;13.62;75.84;100273.50;5054876;28;20212;-77
2022/09/24 01:01:01;;;;;;;2.37;2.27;;;;;;;13.59;75.39;100312.09;5055464;28;20222;-78
2022/09/24 01:03:30;;;;;;;2.17;2.00;;;;;;;13.58;76.36;100299.91;5055697;28;20202;-78
2022/09/24 01:05:58;;;;;;;2.60;2.40;;;;;;;13.60;75.99;100295.47;5055171;28;20232;-78
2022/09/24 01:08:25;;;;;;;4.23;2.00;;;;;;;13.66;76.59;100296.09;5055263;28;20255;-78
2022/09/24 01:11:07;;;;;;;3.20;2.23;;;;;;;13.72;76.79;100276.69;5055367;28;20209;-78
2022/09/24 01:13:43;;;;;;;2.03;1.93;;;;;;;13.72;75.41;100299.44;5055461;28;20209;-78
2022/09/24 01:16:17;;;;;;;2.63;2.23;;;;;;;13.55;71.51;100418.88;5055118;28;20251;-77
2022/09/24 01:18:50;;;;;;;4.30;3.33;;;;;;;13.44;71.04;100482.16;5055170;28;20236;-78
2022/09/24 01:21:35;;;;;;;3.47;3.17;;;;;;;13.37;71.24;100498.94;5055681;28;20206;-78
2022/09/24 01:24:34;;;;;;;3.37;3.17;;;;;;;13.27;71.51;100493.09;5055177;28;20203;-78
2022/09/24 01:27:06;;;;;;;3.30;3.03;;;;;;;13.19;72.36;100468.88;5054155;28;20643;-77
2022/09/24 01:29:51;;;;;;;3.43;3.13;;;;;;;13.07;72.37;100456.97;5051278;28;20641;-76
2022/09/24 01:32:23;;;;;;;4.33;4.00;;;;;;;12.96;73.08;100421.50;5054846;28;20213;-76
2022/09/24 01:34:56;;;;;;;5.37;4.73;;;;;;;12.83;74.48;100371.25;5055658;28;20225;-77
2022/09/24 01:37:27;;;;;;;4.90;4.60;;;;;;;12.76;75.21;100331.25;5056042;28;20229;-77
2022/09/24 01:39:56;;;;;;;5.20;4.70;;;;;;;12.74;76.06;100296.38;5056782;28;20279;-77
2022/09/24 01:42:25;;;;;;;5.30;4.90;;;;;;;12.73;76.07;100276.34;5054755;28;20267;-76
2022/09/24 01:44:54;;;;;;;3.30;3.10;;;;;;;12.74;77.84;100244.00;5054558;28;20225;-76
2022/09/24 01:47:27;;;;;;;4.80;4.50;;;;;;;12.78;75.29;100263.13;5054688;28;20198;-77
2022/09/24 01:49:54;;;;;;;4.87;4.47;;;;;;;12.84;74.93;100292.63;5054629;28;20296;-76
2022/09/24 01:52:25;;;;;;;5.27;4.87;;;;;;;12.84;75.11;100302.22;5054661;28;20232;-76
2022/09/24 01:54:54;;;;;;;5.77;4.80;;;;;;;12.83;74.95;100309.22;5054363;28;20247;-76
2022/09/24 01:57:23;;;;;;;4.73;4.33;;;;;;;12.80;74.90;100293.59;5054454;28;20226;-76
2022/09/24 01:59:57;;;;;;;5.17;4.77;;;;;;;12.81;76.57;100271.75;5054693;28;20204;-77
2022/09/24 02:02:28;;;;;;;5.10;4.53;;;;;;;12.77;74.94;100277.97;5054760;28;20257;-77
2022/09/24 02:04:59;;;;;;;4.27;3.97;;;;;;;12.78;76.90;100258.72;5054351;28;20228;-77
2022/09/24 02:07:33;;;;;;;4.30;4.00;;;;;;;12.83;76.67;100254.22;5054492;28;20208;-77
2022/09/24 02:09:59;;;;;;;4.47;4.07;;;;;;;12.84;76.72;100258.56;5054466;28;20272;-77
2022/09/24 02:12:29;;;;;;;5.17;4.27;;;;;;;12.86;76.61;100259.38;5054736;28;20263;-76
2022/09/24 02:15:02;;;;;;;4.27;3.97;;;;;;;12.88;75.44;100268.03;5053913;28;20224;-77
2022/09/24 02:17:34;;;;;;;4.43;4.03;;;;;;;12.91;75.30;100274.94;5057332;28;20221;-78
2022/09/24 02:20:05;;;;;;;4.00;3.70;;;;;;;12.99;77.63;100251.97;5058694;28;20733;-78
2022/09/24 02:22:32;;;;;;;3.83;3.53;;;;;;;12.99;78.43;100209.19;5058872;28;20208;-78
2022/09/24 02:25:04;;;;;;;4.00;3.70;;;;;;;12.84;77.45;100213.16;5057766;28;20225;-78
2022/09/24 02:27:30;;;;;;;6.67;3.90;;;;;;;12.83;78.13;100216.69;5058291;28;20202;-78
2022/09/24 02:29:59;;;;;;;4.07;3.77;;;;;;;12.71;78.79;100208.31;5058171;28;20282;-78
2022/09/24 02:32:29;;;;;;;6.60;4.93;;;;;;;12.71;78.92;100187.34;5056805;28;20608;-77
2022/09/24 02:35:01;;;;;;;4.97;4.57;;;;;;;12.76;79.04;100166.25;5057297;28;20229;-77
2022/09/24 02:37:28;;;;;;;4.63;4.17;;;;;;;12.90;80.82;100119.53;5057380;28;20221;-78
2022/09/24 02:39:55;;;;;;;5.30;4.90;;;;;;;12.80;81.58;100084.03;5056717;28;20206;-78
2022/09/24 02:42:23;;;;;;;4.90;4.40;;;;;;;12.85;83.32;100055.94;5057485;28;20213;-78
2022/09/24 02:44:50;;;;;;;5.37;4.97;;;;;;;12.70;82.56;100048.59;5057366;28;20293;-78
2022/09/24 02:47:17;;;;;;;6.00;5.00;;;;;;;12.75;83.80;100030.97;5057079;28;20478;-77
2022/09/24 02:49:44;;;;;;;6.73;6.07;;;;;;;12.73;84.13;100018.84;5057246;28;20747;-78
2022/09/24 02:52:10;;;;;;;5.13;4.77;;;;;;;12.77;84.71;100010.81;5057275;28;20210;-78
2022/09/24 02:54:37;;;;;;;5.03;4.63;;;;;;;12.75;84.75;99991.69;5057328;28;20782;-78
2022/09/24 02:57:03;;;;;;;5.50;5.10;;;;;;;12.85;84.48;100006.16;5055570;28;20228;-78
2022/09/24 02:59:30;;;;;;;4.83;4.40;;;;;;;12.94;83.99;100022.47;5057162;28;20275;-78
2022/09/24 03:01:56;;;;;;;5.17;4.87;;;;;;;13.04;83.76;100029.09;5057383;28;20311;-78
2022/09/24 03:04:25;;;;;;;4.37;4.00;;;;;;;13.10;84.37;100034.09;5057620;28;20227;-78
2022/09/24 03:06:51;;;;;;;4.70;4.30;;;;;;;13.16;84.23;100033.91;5057132;28;20215;-78
2022/09/24 03:09:17;;;;;;;4.57;4.27;;;;;;;13.17;84.29;100042.63;5057647;28;20213;-78
2022/09/24 03:11:45;;;;;;;4.50;4.20;;;;;;;13.19;83.94;100054.75;5057824;28;20217;-78
2022/09/24 03:14:11;;;;;;;4.93;4.53;;;;;;;13.21;83.61;100062.56;5057450;28;20237;-78
2022/09/24 03:16:38;;;;;;;4.80;4.50;;;;;;;13.24;82.91;100079.03;5056567;28;20201;-78
2022/09/24 03:19:05;;;;;;;4.87;4.57;;;;;;;13.25;82.65;100098.22;5057368;28;20260;-78
2022/09/24 03:21:33;;;;;;;4.43;4.13;;;;;;;13.26;82.59;100100.81;5058125;28;20228;-78
2022/09/24 03:24:00;;;;;;;5.00;4.70;;;;;;;13.30;83.19;100101.59;5059655;28;20224;-78
2022/09/24 03:26:27;;;;;;;4.97;4.67;;;;;;;13.27;83.50;100080.69;5055975;28;20209;-77
2022/09/24 03:28:53;;;;;;;4.37;4.07;;;;;;;13.22;83.39;100078.25;5055609;28;20295;-77
2022/09/24 03:31:18;;;;;;;4.27;3.87;;;;;;;13.24;83.89;100076.41;5055686;28;20205;-77
2022/09/24 03:33:48;;;;;;;3.73;3.40;;;;;;;13.25;83.36;100072.03;5055778;28;20256;-77
2022/09/24 03:36:18;;;;;;;6.30;3.90;;;;;;;13.30;83.73;100080.63;5055508;28;20226;-77
2022/09/24 03:38:48;;;;;;;4.47;4.10;;;;;;;13.30;84.11;100065.75;5055534;28;20235;-77
2022/09/24 03:41:15;;;;;;;3.57;3.37;;;;;;;13.30;84.26;100067.50;5055669;28;20284;-78
2022/09/24 03:43:43;;;;;;;4.47;4.07;;;;;;;13.29;84.08;100074.50;5055909;28;20206;-77
2022/09/24 03:46:11;;;;;;;5.73;3.93;;;;;;;13.26;83.66;100079.84;5054821;28;20766;-77
2022/09/24 03:48:39;;;;;;;4.87;4.53;;;;;;;13.26;83.09;100094.69;5055448;28;20721;-77
2022/09/24 03:51:07;;;;;;;4.87;4.47;;;;;;;13.28;82.71;100106.84;5055188;28;20256;-77
2022/09/24 03:53:33;;;;;;;7.33;5.80;;;;;;;13.24;81.59;100141.06;5055033;28;20205;-77
2022/09/24 03:56:02;;;;;;;5.60;5.03;;;;;;;13.30;81.56;100156.63;5055334;28;20275;-77
2022/09/24 03:58:30;;;;;;;5.60;5.20;;;;;;;13.30;81.76;100154.03;5054676;28;20275;-77
2022/09/24 04:00:57;;;;;;;5.27;4.97;;;;;;;13.28;82.55;100122.56;5055041;28;20574;-77
2022/09/24 04:03:25;;;;;;;5.40;4.93;;;;;;;13.29;83.14;100103.34;5055066;28;20926;-77
2022/09/24 04:05:51;;;;;;;6.43;4.63;;;;;;;13.27;83.39;100106.91;5054867;28;20226;-77
2022/09/24 04:08:18;;;;;;;5.47;4.53;;;;;;;13.27;83.32;100091.16;5054757;28;20204;-77
2022/09/24 04:10:46;;;;;;;4.13;3.80;;;;;;;13.27;83.61;100084.16;5054858;28;20578;-77
2022/09/24 04:13:13;;;;;;;6.07;3.83;;;;;;;13.24;83.76;100083.41;5055429;28;20206;-77
2022/09/24 04:15:40;;;;;;;4.00;3.70;;;;;;;13.22;83.59;100075.63;5052741;28;20233;-77
2022/09/24 04:18:06;;;;;;;3.77;3.50;;;;;;;13.20;83.67;100079.19;5054492;28;20644;-77
2022/09/24 04:20:33;;;;;;;4.20;3.73;;;;;;;13.20;83.10;100087.91;5055001;28;20613;-77
2022/09/24 04:23:00;;;;;;;4.30;4.00;;;;;;;13.21;82.88;100097.47;5054306;28;20209;-77
2022/09/24 04:25:29;;;;;;;5.57;5.17;;;;;;;13.22;82.47;100111.44;5054455;28;20225;-77
2022/09/24 04:27:57;;;;;;;5.80;5.37;;;;;;;13.21;82.48;100126.31;5054211;28;20201;-77
2022/09/24 04:30:26;;;;;;;6.27;5.73;;;;;;;13.23;81.71;100140.22;5054403;28;20240;-77
2022/09/24 04:32:52;;;;;;;6.07;5.67;;;;;;;13.24;81.61;100148.94;5054304;28;20263;-77
2022/09/24 04:35:20;;;;;;;5.97;5.33;;;;;;;13.21;82.38;100143.81;5054465;28;20226;-77
2022/09/24 04:37:47;;;;;;;6.50;6.00;;;;;;;13.16;82.73;100135.25;5054857;28;20287;-78
2022/09/24 04:40:15;;;;;;;6.33;5.73;;;;;;;13.16;82.19;100127.38;5054469;28;20209;-77
2022/09/24 04:42:43;;;;;;;5.90;5.40;;;;;;;13.13;82.90;100110.00;5055282;28;20209;-78
2022/09/24 04:45:11;;;;;;;5.30;4.90;;;;;;;13.06;83.73;100093.66;5054108;28;20729;-77
2022/09/24 04:47:40;;;;;;;4.40;4.13;;;;;;;13.07;83.58;100078.78;5054338;28;20204;-77
2022/09/24 04:50:08;;;;;;;4.90;4.40;;;;;;;12.98;84.15;100072.06;5054182;28;20213;-78
2022/09/24 04:52:35;;;;;;;4.80;4.50;;;;;;;12.95;84.03;100064.34;5054907;28;20205;-78
2022/09/24 04:55:02;;;;;;;5.40;4.90;;;;;;;12.96;83.94;100066.03;5053958;28;20229;-77
2022/09/24 04:57:34;;;;;;;4.80;4.30;;;;;;;12.96;84.75;100066.03;5054086;28;20213;-77
2022/09/24 05:00:01;;;;;;;4.50;4.20;;;;;;;12.91;84.61;100057.50;5054862;28;20207;-77
2022/09/24 05:02:28;;;;;;;4.47;4.10;;;;;;;12.88;84.32;100063.72;5054370;28;20670;-77
2022/09/24 05:04:56;;;;;;;4.63;4.07;;;;;;;12.89;84.25;100072.41;5053277;28;20591;-77
2022/09/24 05:07:22;;;;;;;4.90;4.10;;;;;;;12.88;83.82;100089.91;5058462;28;20259;-77
2022/09/24 05:09:49;;;;;;;4.80;4.47;;;;;;;12.91;83.57;100096.78;5057681;28;20213;-77
2022/09/24 05:12:15;;;;;;;5.07;4.67;;;;;;;12.96;83.42;100114.97;5058649;28;20209;-78
2022/09/24 05:14:42;;;;;;;4.77;4.37;;;;;;;12.96;83.14;100128.06;5057865;28;20237;-78
2022/09/24 05:17:08;;;;;;;5.83;4.37;;;;;;;12.94;83.37;100130.72;5058132;28;20204;-77
2022/09/24 05:19:34;;;;;;;5.07;4.67;;;;;;;12.91;83.15;100122.97;5057872;28;20323;-77
2022/09/24 05:22:02;;;;;;;4.83;4.43;;;;;;;12.93;83.39;100120.31;5058116;28;20213;-78
2022/09/24 05:24:28;;;;;;;5.13;4.73;;;;;;;12.88;84.11;100102.13;5057884;28;20280;-77
2022/09/24 05:27:10;;;;;;;7.30;4.30;;;;;;;12.90;84.27;100102.91;5057728;28;20202;-77
2022/09/24 05:29:38;;;;;;;4.73;4.43;;;;;;;12.93;83.85;100110.69;5057682;28;20214;-78
2022/09/24 05:32:07;;;;;;;5.20;4.37;;;;;;;12.92;83.71;100116.81;5057492;28;20233;-78
2022/09/24 05:34:34;;;;;;;4.23;3.93;;;;;;;12.94;83.90;100116.78;5057386;28;20256;-77
2022/09/24 05:37:02;;;;;;;4.87;4.50;;;;;;;12.86;83.28;100128.38;5058263;28;20201;-77
2022/09/24 05:39:29;;;;;;;5.17;4.67;;;;;;;12.87;83.19;100132.72;5058704;28;20233;-78
2022/09/24 05:41:56;;;;;;;4.63;4.07;;;;;;;12.85;82.98;100146.78;5058459;28;20228;-77
2022/09/24 05:44:22;;;;;;;4.90;4.50;;;;;;;12.91;83.53;100146.56;5057442;28;20255;-78
2022/09/24 05:46:50;;;;;;;4.27;3.97;;;;;;;12.92;83.64;100145.63;5048622;28;20198;-77
2022/09/24 05:49:17;;;;;;;5.20;3.90;;;;;;;12.96;83.69;100144.63;5057076;28;20260;-78
2022/09/24 05:51:44;;;;;;;5.87;4.70;;;;;;;12.94;83.76;100145.59;5057223;28;20208;-77
2022/09/24 05:54:11;;;;;;;4.73;4.40;;;;;;;12.98;83.94;100147.19;5057828;28;20733;-77
2022/09/24 05:56:38;;;;;;;6.60;6.00;;;;;;;13.01;83.34;100134.00;5057655;28;20266;-77
2022/09/24 05:59:04;;;;;;;8.00;7.30;;;;;;;13.02;83.32;100156.66;5056998;28;20731;-76
2022/09/24 06:01:31;;;;;;;7.00;6.40;;;;;;;12.99;83.61;100141.91;5057287;28;20207;-78
2022/09/24 06:03:58;;;;;;;7.27;6.77;;;;;;;12.97;84.15;100128.00;5057278;28;20717;-77
2022/09/24 06:06:25;;;;;;;6.27;5.77;;;;;;;13.02;84.29;100109.50;5054204;28;20676;-77
2022/09/24 06:08:52;;;;;;;4.10;3.80;;;;;;;13.06;84.54;100116.34;5048983;28;20272;-78
2022/09/24 06:11:21;;;;;;;4.23;3.83;;;;;;;13.05;84.31;100115.50;5044603;28;20202;-76
2022/09/24 06:13:48;;;;;;;4.00;3.70;;;;;;;13.01;84.67;100111.28;5047577;28;20342;-77
2022/09/24 06:16:14;;;;;;;3.37;3.17;;;;;;;13.03;84.99;100092.91;5052997;28;20236;-78
2022/09/24 06:18:43;;;;;;;3.60;3.00;;;;;;;13.04;85.17;100095.47;5047541;28;20221;-78
2022/09/24 06:21:11;;;;;;;3.50;3.27;;;;;;;13.04;85.67;100085.00;5046473;28;20224;-76
2022/09/24 06:23:38;;;;;;;3.27;2.93;;;;;;;13.08;85.96;100078.72;5044245;28;20674;-76
2022/09/24 06:26:07;;;;;;;3.30;3.10;;;;;;;13.05;85.90;100081.44;5042002;28;20297;-76
2022/09/24 06:28:35;;;;;;;4.13;3.80;;;;;;;13.09;85.91;100074.34;5044187;28;20208;-76
2022/09/24 06:31:02;;;;;;;3.73;3.53;;;;;;;13.14;85.55;100080.28;5044103;28;20206;-76
2022/09/24 06:33:29;;;;;;;4.33;4.00;;;;;;;13.21;85.52;100100.09;5042365;28;20244;-76
2022/09/24 06:36:00;;;;;;;3.67;3.30;;;;;;;13.24;85.64;100092.16;5043376;28;20295;-76
2022/09/24 06:38:27;;;;;;;10.10;5.80;;;;;;;13.29;84.99;100099.84;5044142;28;20221;-76
2022/09/24 06:40:59;;;;;;;4.80;4.40;;;;;;;13.36;85.04;100117.09;5042958;28;20197;-76
2022/09/24 06:43:25;;;;;;;5.83;5.33;;;;;;;13.37;84.72;100124.03;5033876;28;20210;-76
2022/09/24 06:45:55;;;;;;;6.60;5.83;;;;;;;13.46;84.46;100128.97;5047154;28;20226;-76
2022/09/24 06:48:22;;;;;;;7.80;6.40;;;;;;;13.51;85.00;100120.91;5053896;28;20198;-76
2022/09/24 06:50:50;;;;;;;7.23;6.63;;;;;;;13.54;86.05;100107.72;5053797;28;20205;-76
2022/09/24 06:53:17;;;;;;;6.13;5.60;;;;;;;13.57;86.14;100091.00;5053403;28;20693;-76
2022/09/24 06:55:43;;;;;;;5.50;5.10;;;;;;;13.65;86.22;100091.56;5053148;28;20226;-76
2022/09/24 06:58:12;;;;;;;5.97;5.47;;;;;;;13.72;84.28;100128.94;5053366;28;20267;-76
2022/09/24 07:00:39;;;;;;;7.97;7.37;;;;;;;13.79;82.53;100188.13;5053255;28;20213;-76
2022/09/24 07:03:07;;;;;;;7.57;7.07;;;;;;;13.87;81.57;100230.66;5053370;28;20205;-76
2022/09/24 07:05:35;;;;;;;7.60;7.00;;;;;;;13.95;81.12;100267.97;5052810;28;20227;-76
2022/09/24 07:08:01;;;;;;;8.00;7.23;;;;;;;13.93;82.97;100250.59;5053131;28;20733;-76
2022/09/24 07:10:28;;;;;;;8.13;7.50;;;;;;;13.74;85.82;100151.56;5053170;28;20201;-76
2022/09/24 07:12:54;;;;;;;7.40;6.90;;;;;;;13.83;85.58;100126.75;5052914;28;20213;-76
2022/09/24 07:15:21;;;;;;;7.57;7.07;;;;;;;13.56;86.26;100107.63;5052990;28;20233;-76
2022/09/24 07:17:47;;;;;;;7.53;7.03;;;;;;;13.42;86.90;100085.41;5044595;28;20202;-76
2022/09/24 07:20:15;;;;;;;7.10;6.60;;;;;;;13.60;85.83;100090.91;5053034;28;20222;-76
2022/09/24 07:22:42;;;;;;;8.17;7.00;;;;;;;13.72;85.28;100123.69;5052956;28;20213;-76
2022/09/24 07:25:10;;;;;;;7.20;6.70;;;;;;;13.87;83.99;100141.47;5052664;28;20226;-75
2022/09/24 07:27:37;;;;;;;7.63;7.03;;;;;;;13.96;83.84;100169.16;5052131;28;20209;-76
2022/09/24 07:30:05;;;;;;;7.30;6.80;;;;;;;13.98;84.28;100165.53;5052608;28;20267;-76
2022/09/24 07:32:32;;;;;;;8.07;7.47;;;;;;;14.06;83.31;100192.34;5052391;28;20206;-75
2022/09/24 07:34:59;;;;;;;7.50;7.00;;;;;;;14.08;83.16;100197.56;5052498;28;20278;-76
2022/09/24 07:37:26;;;;;;;7.43;6.93;;;;;;;14.19;81.95;100221.63;5053133;28;20214;-77
2022/09/24 07:39:53;;;;;;;7.87;7.27;;;;;;;14.29;81.39;100256.25;5053335;28;20279;-76
2022/09/24 07:42:20;;;;;;;8.00;7.40;;;;;;;14.36;81.17;100268.25;5053378;28;20213;-76
2022/09/24 07:44:47;;;;;;;8.17;7.50;;;;;;;14.41;80.63;100281.19;5053086;28;20217;-77
2022/09/24 07:47:15;;;;;;;8.73;8.07;;;;;;;14.39;81.36;100285.66;5053083;28;20197;-77
2022/09/24 07:49:41;;;;;;;7.73;7.23;;;;;;;14.38;81.54;100273.47;5053257;28;20259;-76
2022/09/24 07:52:09;;;;;;;8.87;8.27;;;;;;;14.42;81.62;100265.38;5052450;28;20203;-76
2022/09/24 07:54:37;;;;;;;8.27;7.67;;;;;;;14.56;81.87;100259.66;5052126;28;20240;-76
2022/09/24 07:57:09;;;;;;;9.13;8.20;;;;;;;14.65;81.61;100261.09;5052589;28;20261;-78
2022/09/24 07:59:35;;;;;;;9.03;8.43;;;;;;;14.78;79.87;100291.19;5052956;28;20229;-77
2022/09/24 08:02:02;;;;;;;7.70;7.20;;;;;;;14.87;78.79;100338.16;5052607;28;20209;-75
2022/09/24 08:04:29;;;;;;;7.73;7.07;;;;;;;14.98;77.93;100366.66;5052031;28;20225;-74
2022/09/24 08:06:55;;;;;;;8.57;7.87;;;;;;;15.03;75.43;100437.47;5053449;28;20308;-77
2022/09/24 08:09:22;;;;;;;8.27;7.53;;;;;;;15.07;75.10;100481.13;5052921;28;20206;-77
2022/09/24 08:11:50;;;;;;;8.43;7.83;;;;;;;15.15;73.62;100536.06;5053387;28;20210;-77
2022/09/24 08:14:16;;;;;;;8.20;7.60;;;;;;;15.16;73.25;100569.31;5054457;28;20223;-77
2022/09/24 08:16:42;;;;;;;8.73;8.03;;;;;;;14.87;77.47;100487.13;5053584;28;20208;-77
2022/09/24 08:19:12;;;;;;;8.17;7.57;;;;;;;14.71;78.45;100407.97;5052260;28;20286;-77
2022/09/24 08:21:39;;;;;;;8.77;8.17;;;;;;;14.78;78.88;100370.03;5051819;28;20202;-77
2022/09/24 08:24:05;;;;;;;8.20;7.60;;;;;;;14.87;78.51;100355.72;5052823;28;20209;-75
2022/09/24 08:26:32;;;;;;;9.00;8.40;;;;;;;15.06;77.85;100368.97;5052419;28;20256;-77
2022/09/24 08:29:00;;;;;;;9.90;9.10;;;;;;;15.05;76.07;100404.94;5052164;28;20214;-76
2022/09/24 08:31:26;;;;;;;9.97;9.30;;;;;;;14.80;74.21;100469.84;5051884;28;20255;-76
2022/09/24 08:33:52;;;;;;;10.30;9.40;;;;;;;14.79;77.59;100436.59;5051584;28;20679;-75
2022/09/24 08:36:19;;;;;;;10.47;9.67;;;;;;;14.58;78.46;100402.28;5051517;28;20210;-76
2022/09/24 08:38:45;;;;;;;11.23;10.43;;;;;;;14.66;78.34;100365.25;5051885;28;20263;-76
2022/09/24 08:41:32;;;;;;;10.63;9.93;;;;;;;14.78;77.83;100372.66;5056078;28;20206;-76
2022/09/24 08:44:04;;;;;;;10.47;9.57;;;;;;;14.72;77.25;100391.28;5055879;28;20209;-76
2022/09/24 08:49:24;;;;;;;10.17;9.47;;;;;;;14.73;75.84;100436.81;5055828;28;20220;-76
2022/09/24 08:52:01;;;;;;;9.77;9.07;;;;;;;14.56;75.47;100443.53;5056010;28;20265;-76
2022/09/24 08:54:29;;;;;;;10.23;9.33;;;;;;;14.45;76.21;100457.00;5055666;28;20226;-76
2022/09/24 08:56:56;;;;;;;10.23;9.20;;;;;;;14.65;75.73;100452.88;5056056;28;20205;-78
2022/09/24 08:59:29;;;;;;;9.40;8.70;;;;;;;14.57;74.89;100484.66;5057160;28;20317;-82
2022/09/24 09:02:14;;;;;;;10.67;9.90;;;;;;;14.44;75.12;100492.06;5057518;28;20244;-81
2022/09/24 09:04:52;;;;;;;9.57;8.90;;;;;;;14.73;75.73;100468.34;5060596;28;20878;-82
2022/09/24 09:07:23;;;;;;;9.50;8.70;;;;;;;14.75;74.41;100487.56;5062673;28;20194;-82
2022/09/24 09:09:55;;;;;;;9.00;8.40;;;;;;;14.81;74.78;100505.72;5060976;28;20268;-82
2022/09/24 09:12:27;;;;;;;9.57;8.67;;;;;;;15.02;74.43;100509.34;5056307;28;20206;-81
2022/09/24 09:15:02;;;;;;;9.30;8.67;;;;;;;14.98;72.74;100541.91;5056401;28;20226;-79
2022/09/24 09:17:40;;;;;;;10.03;9.33;;;;;;;15.18;73.41;100555.22;5055660;28;20198;-81
2022/09/24 09:20:12;;;;;;;11.33;10.53;;;;;;;15.32;71.43;100602.06;5055498;28;20229;-79
2022/09/24 09:22:44;;;;;;;10.30;9.50;;;;;;;15.50;70.54;100645.25;5062061;28;20211;-79
2022/09/24 09:25:18;;;;;;;9.60;8.80;;;;;;;15.59;69.96;100671.22;5057884;28;20231;-81
2022/09/24 09:27:46;;;;;;;9.90;9.03;;;;;;;15.49;67.34;100746.13;5060139;28;20584;-81
2022/09/24 09:30:18;;;;;;;9.60;8.80;;;;;;;15.46;67.25;100794.47;5058413;28;20217;-82
2022/09/24 09:33:00;;;;;;;9.77;8.97;;;;;;;15.51;67.94;100804.81;5057138;28;20206;-81
2022/09/24 09:35:35;;;;;;;9.67;8.97;;;;;;;15.37;68.19;100792.13;5056178;28;20231;-81
2022/09/24 09:38:10;;;;;;;10.83;9.93;;;;;;;15.54;69.62;100730.19;5055993;28;20660;-81
2022/09/24 09:40:43;;;;;;;10.57;8.93;;;;;;;15.61;68.68;100732.53;5056585;28;20230;-78
2022/09/24 09:43:12;;;;;;;10.57;9.03;;;;;;;15.60;70.03;100703.66;5055044;28;20702;-78
2022/09/24 09:45:46;;;;;;;10.73;9.83;;;;;;;15.60;70.64;100672.94;5055485;28;20584;-78
2022/09/24 09:48:15;;;;;;;12.37;11.37;;;;;;;15.60;71.60;100617.69;5058293;28;20206;-81
2022/09/24 09:50:46;;;;;;;11.90;11.10;;;;;;;15.34;71.29;100615.13;5055234;28;20206;-78
2022/09/24 09:53:20;;;;;;;19.33;11.00;;;;;;;15.10;70.96;100607.19;5054907;28;20255;-78
2022/09/24 09:55:52;;;;;;;10.40;9.60;;;;;;;15.23;71.74;100586.59;5054723;28;20594;-78
2022/09/24 09:58:23;;;;;;;11.40;10.60;;;;;;;15.19;72.57;100556.06;5054736;28;20586;-80
2022/09/24 10:00:52;;;;;;;12.50;11.30;;;;;;;15.08;74.02;100525.78;5054442;28;20587;-79
2022/09/24 10:03:24;;;;;;;13.07;12.03;;;;;;;15.00;75.21;100469.97;5054496;28;20259;-80
2022/09/24 10:05:56;;;;;;;14.33;12.97;;;;;;;14.85;74.46;100452.16;5055709;28;20285;-81
2022/09/24 10:08:24;;;;;;;14.33;13.20;;;;;;;14.82;75.11;100444.34;5055023;28;20203;-82
2022/09/24 10:10:55;;;;;;;13.80;12.70;;;;;;;14.73;74.14;100444.69;5055267;28;20257;-78
2022/09/24 10:13:21;;;;;;;12.70;11.80;;;;;;;14.92;75.03;100445.72;5054970;28;20304;-79
2022/09/24 10:15:51;;;;;;;13.73;12.73;;;;;;;14.91;75.48;100425.63;5054450;28;20229;-81
2022/09/24 10:18:28;;;;;;;13.77;12.47;;;;;;;14.97;76.20;100416.66;5054391;28;20257;-82
2022/09/24 10:20:56;;;;;;;12.93;11.87;;;;;;;15.03;76.28;100403.28;5054696;28;20232;-84
2022/09/24 10:23:32;;;;;;;13.03;11.83;;;;;;;14.87;76.73;100395.97;5054428;28;20202;-82
2022/09/24 10:26:00;;;;;;;14.53;13.33;;;;;;;14.66;77.70;100347.69;5053919;28;20640;-81
2022/09/24 10:31:16;;;;;;;15.17;13.70;;;;;;;14.71;77.32;100363.31;5054220;28;20201;-80
2022/09/24 10:33:45;;;;;;;15.00;13.80;;;;;;;14.74;76.62;100363.19;5054392;28;20700;-79
2022/09/24 10:36:15;;;;;;;14.20;13.20;;;;;;;14.74;76.62;100392.09;5054289;28;20283;-79
2022/09/24 10:38:42;;;;;;;14.87;13.63;;;;;;;14.90;76.89;100384.47;5054125;28;20211;-80
2022/09/24 10:41:25;;;;;;;14.60;13.50;;;;;;;14.96;77.04;100384.25;5053774;28;20703;-80
2022/09/24 10:43:53;;;;;;;15.23;13.80;;;;;;;14.67;77.22;100380.94;5054001;28;20205;-80
2022/09/24 10:46:48;;;;;;;17.47;15.83;;;;;;;14.61;76.81;100381.19;5053597;28;20216;-80
2022/09/24 10:49:26;;;;;;;16.30;15.10;;;;;;;14.57;76.90;100395.34;5031088;28;20232;-80
2022/09/24 10:51:58;;;;;;;17.10;14.93;;;;;;;14.61;77.14;100393.47;5033946;28;20344;-78
2022/09/24 10:54:43;;;;;;;16.23;14.90;;;;;;;14.60;77.08;100384.72;5033873;28;20789;-78
2022/09/24 10:57:24;;;;;;;16.27;14.83;;;;;;;14.82;77.46;100366.38;5033910;28;20301;-78
2022/09/24 11:00:01;;;;;;;16.70;15.33;;;;;;;14.91;76.78;100375.69;5033430;28;20235;-78
2022/09/24 11:02:54;;;;;;;17.17;14.57;;;;;;;14.86;77.33;100378.47;5033420;28;20746;-77
2022/09/24 11:05:22;;;;;;;14.83;13.67;;;;;;;14.80;76.72;100381.34;5032890;28;20299;-80
2022/09/24 11:08:00;;;;;;;16.60;15.20;;;;;;;14.83;78.62;100368.09;5033570;28;20203;-82
2022/09/24 11:10:42;;;;;;;17.20;15.80;;;;;;;14.93;77.64;100359.88;5033287;28;20263;-82
2022/09/24 11:13:18;;;;;;;16.47;15.07;;;;;;;15.09;77.11;100367.09;5033364;28;20548;-82
2022/09/24 11:16:01;;;;;;;15.07;13.73;;;;;;;15.35;76.76;100378.38;5049045;28;20347;-81
2022/09/24 11:18:44;;;;;;;16.00;14.60;;;;;;;15.53;75.67;100416.22;5054031;28;20198;-81
2022/09/24 11:21:22;;;;;;;16.13;14.73;;;;;;;15.70;75.58;100434.00;5053584;28;20229;-79
2022/09/24 11:24:27;;;;;;;14.60;13.40;;;;;;;15.89;75.57;100431.47;5053056;28;20667;-78
2022/09/24 11:27:05;;;;;;;14.23;12.80;;;;;;;15.99;74.58;100461.78;5052897;28;20209;-81
2022/09/24 11:29:51;;;;;;;13.70;12.50;;;;;;;16.08;74.02;100479.84;5048657;28;20210;-81
2022/09/24 11:32:28;;;;;;;12.53;11.53;;;;;;;16.18;73.43;100503.16;5043973;28;20206;-81
2022/09/24 11:35:15;;;;;;;12.77;11.77;;;;;;;16.10;72.39;100555.31;5049493;28;20221;-81
2022/09/24 11:37:55;;;;;;;12.03;11.00;;;;;;;15.85;71.20;100607.13;5033111;28;20210;-81
2022/09/24 11:40:37;;;;;;;11.87;10.87;;;;;;;15.58;71.55;100613.38;5037083;28;20230;-81
2022/09/24 11:43:22;;;;;;;12.33;11.43;;;;;;;15.43;71.99;100578.84;5038923;28;20204;-83